createdAt,value
2019-06-26T00:00:55.496Z,26.00
2019-06-26T00:03:22.569Z,26.00
2019-06-26T00:05:49.676Z,25.90
2019-06-26T00:08:16.707Z,25.80
2019-06-26T00:10:43.639Z,25.80
2019-06-26T00:13:25.029Z,25.80
2019-06-26T00:15:39.405Z,25.70
2019-06-26T00:18:07.662Z,25.80
2019-06-26T00:20:34.812Z,25.70
2019-06-26T00:23:03.567Z,25.70
2019-06-26T00:25:30.650Z,25.70
2019-06-26T00:27:57.632Z,25.60
2019-06-26T00:30:24.718Z,25.50
2019-06-26T00:32:51.700Z,25.50
2019-06-26T00:35:18.836Z,25.40
2019-06-26T00:37:45.818Z,25.30
2019-06-26T00:40:13.062Z,25.30
2019-06-26T00:42:39.984Z,25.30
2019-06-26T00:45:07.806Z,25.30
2019-06-26T00:47:34.814Z,25.30
2019-06-26T00:50:01.866Z,25.30
2019-06-26T00:52:29.017Z,25.30
2019-06-26T00:54:56.076Z,25.20
2019-06-26T00:57:23.080Z,25.20
2019-06-26T00:59:50.237Z,25.20
2019-06-26T01:02:17.353Z,25.10
2019-06-26T01:04:55.120Z,25.00
2019-06-26T01:07:22.134Z,25.00
2019-06-26T01:09:49.242Z,24.90
2019-06-26T01:12:16.230Z,24.90
2019-06-26T01:14:43.201Z,24.90
2019-06-26T01:17:10.409Z,24.80
2019-06-26T01:19:37.549Z,24.70
2019-06-26T01:22:04.591Z,24.70
2019-06-26T01:24:31.565Z,24.70
2019-06-26T01:26:58.523Z,24.70
2019-06-26T01:29:25.592Z,24.70
2019-06-26T01:31:52.623Z,24.70
2019-06-26T01:34:19.593Z,24.70
2019-06-26T01:36:46.709Z,24.70
2019-06-26T01:39:13.679Z,24.60
2019-06-26T01:41:41.374Z,24.60
2019-06-26T01:44:14.952Z,24.60
2019-06-26T01:46:37.271Z,24.60
2019-06-26T01:49:04.324Z,24.40
2019-06-26T01:51:31.210Z,24.40
2019-06-26T01:53:58.196Z,24.40
2019-06-26T01:56:25.325Z,24.30
2019-06-26T01:58:52.328Z,24.30
2019-06-26T02:01:19.854Z,24.30
2019-06-26T02:03:46.859Z,24.40
2019-06-26T02:06:13.877Z,24.40
2019-06-26T02:08:40.898Z,24.30
2019-06-26T02:11:07.976Z,24.20
2019-06-26T02:13:34.865Z,24.30
2019-06-26T02:16:01.834Z,24.10
2019-06-26T02:18:39.757Z,24.20
2019-06-26T02:21:06.716Z,24.10
2019-06-26T02:23:33.795Z,24.10
2019-06-26T02:26:00.810Z,24.10
2019-06-26T02:28:27.964Z,24.00
2019-06-26T02:30:54.908Z,24.00
2019-06-26T02:33:21.993Z,24.00
2019-06-26T02:35:49.033Z,23.90
2019-06-26T02:38:16.145Z,23.90
2019-06-26T02:40:43.199Z,23.90
2019-06-26T02:43:10.383Z,23.90
2019-06-26T02:45:37.458Z,23.90
2019-06-26T02:48:04.480Z,23.80
2019-06-26T02:50:31.527Z,23.80
2019-06-26T02:52:58.565Z,23.80
2019-06-26T02:55:25.712Z,23.80
2019-06-26T02:57:52.777Z,23.80
2019-06-26T03:00:19.783Z,23.80
2019-06-26T03:02:46.857Z,23.80
2019-06-26T03:05:13.814Z,23.70
2019-06-26T03:07:40.897Z,23.70
2019-06-26T03:10:08.256Z,23.70
2019-06-26T03:12:35.461Z,23.70
2019-06-26T03:15:08.747Z,23.70
2019-06-26T03:17:31.653Z,23.60
2019-06-26T03:19:58.783Z,23.70
2019-06-26T03:22:25.753Z,23.70
2019-06-26T03:25:12.401Z,23.70
2019-06-26T03:27:39.365Z,23.60
2019-06-26T03:30:06.618Z,23.70
2019-06-26T03:32:33.632Z,23.60
2019-06-26T03:35:00.701Z,23.60
2019-06-26T03:37:27.758Z,23.60
2019-06-26T03:39:54.670Z,23.50
2019-06-26T03:42:21.737Z,23.60
2019-06-26T03:44:48.729Z,23.50
2019-06-26T03:47:15.758Z,23.50
2019-06-26T03:49:42.818Z,23.60
2019-06-26T03:52:09.804Z,23.50
2019-06-26T03:54:36.877Z,23.50
2019-06-26T03:57:03.947Z,23.50
2019-06-26T03:59:31.009Z,23.50
2019-06-26T04:01:58.132Z,23.50
2019-06-26T04:04:25.217Z,23.50
2019-06-26T04:06:52.266Z,23.60
2019-06-26T04:09:19.253Z,23.60
2019-06-26T04:11:46.211Z,23.60
2019-06-26T04:14:13.199Z,23.60
2019-06-26T04:16:43.990Z,23.70
2019-06-26T04:19:11.059Z,23.70
2019-06-26T04:21:38.093Z,23.70
2019-06-26T04:24:04.999Z,23.70
2019-06-26T04:26:32.166Z,23.80
2019-06-26T04:28:59.201Z,23.80
2019-06-26T04:31:27.363Z,23.80
2019-06-26T04:33:55.575Z,23.80
2019-06-26T04:36:22.577Z,23.90
2019-06-26T04:38:59.052Z,23.90
2019-06-26T04:41:33.329Z,23.90
2019-06-26T04:44:02.342Z,24.00
2019-06-26T04:46:29.301Z,24.00
2019-06-26T04:48:56.351Z,24.10
2019-06-26T04:51:23.294Z,24.10
2019-06-26T04:53:50.263Z,24.20
2019-06-26T04:56:17.117Z,24.20
2019-06-26T04:58:44.087Z,24.20
2019-06-26T05:01:13.877Z,24.30
2019-06-26T05:03:40.876Z,24.40
2019-06-26T05:06:07.825Z,24.40
2019-06-26T05:08:34.731Z,24.50
2019-06-26T05:11:01.798Z,24.50
2019-06-26T05:13:28.819Z,24.70
2019-06-26T05:15:55.788Z,24.80
2019-06-26T05:18:22.707Z,24.90
2019-06-26T05:20:49.719Z,24.90
2019-06-26T05:23:16.784Z,24.90
2019-06-26T05:25:43.859Z,25.00
2019-06-26T05:28:11.950Z,25.10
2019-06-26T05:30:39.224Z,25.10
2019-06-26T05:33:06.306Z,25.10
2019-06-26T05:35:35.474Z,25.20
2019-06-26T05:38:02.801Z,25.30
2019-06-26T05:40:29.870Z,25.30
2019-06-26T05:42:56.904Z,25.30
2019-06-26T05:45:24.001Z,25.30
2019-06-26T05:47:51.469Z,25.40
2019-06-26T05:50:18.816Z,25.50
2019-06-26T05:52:45.826Z,25.50
2019-06-26T05:55:13.132Z,25.50
2019-06-26T05:57:41.926Z,25.60
2019-06-26T06:00:09.600Z,25.60
2019-06-26T06:02:36.844Z,25.70
2019-06-26T06:05:04.830Z,25.70
2019-06-26T06:07:31.953Z,25.80
2019-06-26T06:09:58.879Z,25.80
2019-06-26T06:12:26.013Z,26.20
2019-06-26T06:14:53.026Z,26.40
2019-06-26T06:17:19.933Z,26.50
2019-06-26T06:19:47.111Z,26.50
2019-06-26T06:22:14.132Z,26.70
2019-06-26T06:24:41.185Z,26.70
2019-06-26T06:27:08.194Z,26.70
2019-06-26T06:29:35.537Z,26.80
2019-06-26T06:32:02.519Z,26.80
2019-06-26T06:34:29.665Z,26.80
2019-06-26T06:36:56.682Z,26.90
2019-06-26T06:39:23.655Z,26.90
2019-06-26T06:41:50.723Z,26.90
2019-06-26T06:44:17.701Z,27.00
2019-06-26T06:46:45.540Z,27.10
2019-06-26T06:49:12.545Z,27.30
2019-06-26T06:51:39.587Z,27.40
2019-06-26T06:54:06.670Z,27.50
2019-06-26T06:56:33.834Z,27.50
2019-06-26T06:59:00.817Z,27.60
2019-06-26T07:01:27.866Z,27.60
2019-06-26T07:03:55.011Z,27.60
2019-06-26T07:06:22.105Z,27.70
2019-06-26T07:08:49.126Z,28.00
2019-06-26T07:11:16.402Z,28.30
2019-06-26T07:13:43.453Z,28.70
2019-06-26T07:16:10.698Z,29.20
2019-06-26T07:18:37.725Z,29.50
2019-06-26T07:21:04.838Z,29.80
2019-06-26T07:23:32.257Z,29.90
2019-06-26T07:25:59.604Z,29.90
2019-06-26T07:28:26.628Z,29.90
2019-06-26T07:30:54.208Z,29.80
2019-06-26T07:33:21.236Z,29.70
2019-06-26T07:35:48.223Z,29.70
2019-06-26T07:38:15.356Z,29.60
2019-06-26T07:40:42.353Z,29.60
2019-06-26T07:43:09.327Z,29.50
2019-06-26T07:45:36.520Z,29.40
2019-06-26T07:48:03.698Z,29.40
2019-06-26T07:50:32.622Z,29.40
2019-06-26T07:52:59.781Z,29.30
2019-06-26T07:55:26.929Z,29.30
2019-06-26T07:57:53.796Z,29.30
2019-06-26T08:00:22.448Z,29.20
2019-06-26T08:02:49.428Z,29.20
2019-06-26T08:05:17.513Z,29.20
2019-06-26T08:07:44.552Z,29.20
2019-06-26T08:10:13.038Z,29.20
2019-06-26T08:12:40.098Z,29.20
2019-06-26T08:15:07.544Z,29.20
2019-06-26T08:17:34.534Z,29.30
2019-06-26T08:20:01.528Z,29.40
2019-06-26T08:22:28.597Z,29.40
2019-06-26T08:24:55.663Z,29.60
2019-06-26T08:27:22.770Z,29.70
2019-06-26T08:29:49.830Z,29.80
2019-06-26T08:32:16.804Z,29.80
2019-06-26T08:34:45.278Z,29.80
2019-06-26T08:37:12.209Z,29.80
2019-06-26T08:39:39.154Z,29.80
2019-06-26T08:42:06.101Z,29.80
2019-06-26T08:44:33.061Z,29.80
2019-06-26T08:47:00.083Z,29.80
2019-06-26T08:49:27.533Z,29.80
2019-06-26T08:51:54.523Z,29.90
2019-06-26T08:54:21.528Z,29.90
2019-06-26T08:56:48.629Z,30.00
2019-06-26T08:59:15.585Z,30.10
2019-06-26T09:01:42.905Z,30.30
2019-06-26T09:04:10.044Z,30.60
2019-06-26T09:06:37.136Z,31.10
2019-06-26T09:09:05.640Z,31.60
2019-06-26T09:11:32.598Z,32.20
2019-06-26T09:13:59.670Z,32.70
2019-06-26T09:16:33.076Z,33.30
2019-06-26T09:19:00.121Z,33.60
2019-06-26T09:21:30.056Z,33.80
2019-06-26T09:23:55.961Z,34.20
2019-06-26T09:26:22.912Z,34.50
2019-06-26T09:28:49.962Z,34.50
2019-06-26T09:31:17.710Z,34.50
2019-06-26T09:33:44.721Z,34.60
2019-06-26T09:36:11.791Z,34.50
2019-06-26T09:38:38.698Z,34.30
2019-06-26T09:41:05.842Z,33.90
2019-06-26T09:43:32.889Z,33.70
2019-06-26T09:45:59.950Z,33.50
2019-06-26T09:48:27.024Z,33.30
2019-06-26T09:50:54.179Z,33.10
2019-06-26T09:53:21.261Z,32.90
2019-06-26T09:55:48.732Z,32.90
2019-06-26T09:58:15.720Z,32.80
2019-06-26T10:00:42.759Z,32.80
2019-06-26T10:03:09.986Z,32.80
2019-06-26T10:05:37.402Z,32.80
2019-06-26T10:08:04.594Z,32.70
2019-06-26T10:10:31.585Z,32.70
2019-06-26T10:12:58.590Z,32.70
2019-06-26T10:15:25.644Z,32.70
2019-06-26T10:17:52.887Z,32.70
2019-06-26T10:20:20.057Z,32.70
2019-06-26T10:22:52.255Z,32.70
2019-06-26T10:25:19.670Z,32.70
2019-06-26T10:27:46.868Z,32.70
2019-06-26T10:30:14.513Z,32.70
2019-06-26T10:32:41.596Z,32.80
2019-06-26T10:35:09.347Z,32.90
2019-06-26T10:37:36.789Z,32.80
2019-06-26T10:40:05.097Z,32.80
2019-06-26T10:42:32.072Z,32.80
2019-06-26T10:44:58.988Z,32.80
2019-06-26T10:47:26.040Z,32.80
2019-06-26T10:49:53.037Z,32.80
2019-06-26T10:52:19.996Z,32.80
2019-06-26T10:54:47.052Z,32.90
2019-06-26T10:57:14.323Z,32.90
2019-06-26T10:59:41.305Z,32.90
2019-06-26T11:02:08.391Z,32.90
2019-06-26T11:04:35.529Z,33.00
2019-06-26T11:07:02.555Z,33.00
2019-06-26T11:09:29.866Z,32.90
2019-06-26T11:11:56.911Z,32.90
2019-06-26T11:14:23.899Z,32.90
2019-06-26T11:16:51.030Z,32.90
2019-06-26T11:19:18.136Z,32.90
2019-06-26T11:21:45.235Z,32.90
2019-06-26T11:24:12.332Z,32.90
2019-06-26T11:26:39.381Z,33.00
2019-06-26T11:29:06.454Z,32.90
2019-06-26T11:31:33.475Z,32.90
2019-06-26T11:34:00.576Z,33.00
2019-06-26T11:36:27.622Z,33.00
2019-06-26T11:38:54.656Z,33.00
2019-06-26T11:41:21.689Z,33.00
2019-06-26T11:43:48.822Z,33.00
2019-06-26T11:46:15.961Z,33.00
2019-06-26T11:48:43.023Z,33.10
2019-06-26T11:51:09.978Z,33.10
2019-06-26T11:53:37.000Z,33.10
2019-06-26T11:56:04.384Z,33.20
2019-06-26T11:58:31.343Z,33.20
2019-06-26T12:00:58.378Z,33.10
2019-06-26T12:03:25.300Z,33.10
2019-06-26T12:05:52.418Z,33.10
2019-06-26T12:08:19.393Z,33.20
2019-06-26T12:10:46.305Z,33.30
2019-06-26T12:13:14.296Z,33.30
2019-06-26T12:15:41.289Z,33.30
2019-06-26T12:18:08.199Z,33.30
2019-06-26T12:20:35.364Z,33.30
2019-06-26T12:23:02.453Z,33.30
2019-06-26T12:25:29.584Z,33.30
2019-06-26T12:27:57.792Z,33.30
2019-06-26T12:30:24.745Z,33.30
2019-06-26T12:33:02.152Z,33.30
2019-06-26T12:35:20.821Z,33.30
2019-06-26T12:37:47.897Z,33.30
2019-06-26T12:40:15.463Z,33.40
2019-06-26T12:42:42.602Z,33.40
2019-06-26T12:45:11.256Z,33.40
2019-06-26T12:47:38.415Z,33.40
2019-06-26T12:50:06.089Z,33.40
2019-06-26T12:52:33.112Z,33.50
2019-06-26T12:55:00.217Z,33.50
2019-06-26T12:57:28.334Z,33.60
2019-06-26T12:59:57.795Z,33.50
2019-06-26T13:02:24.320Z,33.50
2019-06-26T13:04:51.238Z,33.50
2019-06-26T13:07:18.245Z,33.50
2019-06-26T13:09:45.172Z,33.60
2019-06-26T13:12:12.132Z,33.60
2019-06-26T13:14:39.110Z,33.60
2019-06-26T13:17:06.009Z,33.60
2019-06-26T13:19:33.154Z,33.60
2019-06-26T13:22:00.296Z,33.60
2019-06-26T13:24:27.376Z,33.60
2019-06-26T13:26:54.752Z,33.60
2019-06-26T13:29:21.828Z,33.60
2019-06-26T13:31:48.915Z,33.70
2019-06-26T13:34:16.051Z,33.80
2019-06-26T13:36:43.114Z,33.70
2019-06-26T13:39:10.248Z,33.70
2019-06-26T13:41:37.409Z,33.60
2019-06-26T13:44:04.595Z,33.60
2019-06-26T13:46:31.583Z,33.70
2019-06-26T13:48:58.801Z,33.80
2019-06-26T13:51:25.800Z,33.70
2019-06-26T13:53:52.852Z,33.80
2019-06-26T13:56:23.402Z,33.80
2019-06-26T13:58:50.425Z,33.70
2019-06-26T14:01:17.574Z,33.80
2019-06-26T14:03:44.632Z,33.80
2019-06-26T14:06:11.672Z,33.80
2019-06-26T14:08:38.772Z,33.80
2019-06-26T14:11:07.586Z,33.90
2019-06-26T14:13:34.669Z,33.90
2019-06-26T14:16:01.693Z,33.90
2019-06-26T14:18:30.461Z,33.90
2019-06-26T14:20:57.653Z,33.90
2019-06-26T14:23:24.575Z,33.90
2019-06-26T14:25:51.704Z,33.80
2019-06-26T14:28:19.691Z,33.90
2019-06-26T14:30:46.995Z,33.90
2019-06-26T14:33:13.971Z,33.90
2019-06-26T14:35:40.978Z,33.90
2019-06-26T14:38:07.892Z,34.00
2019-06-26T14:40:34.962Z,34.00
2019-06-26T14:43:01.899Z,33.90
2019-06-26T14:45:28.835Z,33.90
2019-06-26T14:47:56.027Z,33.90
2019-06-26T14:50:23.074Z,34.00
2019-06-26T14:52:49.990Z,34.00
2019-06-26T14:55:17.034Z,34.00
2019-06-26T14:57:45.265Z,34.00
2019-06-26T15:00:13.956Z,34.00
2019-06-26T15:02:40.923Z,34.00
2019-06-26T15:05:09.392Z,34.00
2019-06-26T15:07:36.398Z,34.00
2019-06-26T15:10:04.018Z,34.00
2019-06-26T15:12:31.022Z,34.00
2019-06-26T15:14:58.069Z,34.00
2019-06-26T15:17:25.097Z,34.00
2019-06-26T15:19:52.158Z,34.00
2019-06-26T15:22:19.163Z,34.00
2019-06-26T15:24:46.162Z,34.00
2019-06-26T15:27:13.230Z,34.00
2019-06-26T15:29:40.617Z,34.00
2019-06-26T15:32:07.606Z,34.00
2019-06-26T15:34:34.605Z,34.00
2019-06-26T15:37:01.594Z,34.10
2019-06-26T15:39:28.739Z,34.00
2019-06-26T15:41:55.806Z,34.00
2019-06-26T15:44:22.897Z,34.00
2019-06-26T15:46:50.219Z,33.90
2019-06-26T15:49:17.248Z,33.90
2019-06-26T15:51:44.150Z,34.00
2019-06-26T15:54:11.106Z,34.00
2019-06-26T15:56:38.154Z,34.00
2019-06-26T15:59:05.145Z,34.00
2019-06-26T16:01:32.046Z,34.00
2019-06-26T16:03:59.082Z,34.00
2019-06-26T16:06:25.998Z,34.00
2019-06-26T16:08:52.980Z,34.00
2019-06-26T16:11:20.015Z,34.00
2019-06-26T16:13:47.128Z,34.00
2019-06-26T16:16:14.389Z,34.00
2019-06-26T16:18:43.340Z,33.90
2019-06-26T16:21:10.391Z,33.90
2019-06-26T16:23:37.434Z,33.90
2019-06-26T16:26:04.370Z,33.90
2019-06-26T16:28:31.423Z,33.90
2019-06-26T16:30:58.434Z,33.90
2019-06-26T16:33:25.578Z,33.90
2019-06-26T16:35:52.689Z,33.90
2019-06-26T16:38:19.759Z,33.80
2019-06-26T16:40:46.948Z,33.80
2019-06-26T16:43:13.961Z,33.80
2019-06-26T16:45:40.977Z,33.80
2019-06-26T16:48:07.896Z,33.80
2019-06-26T16:50:34.908Z,33.80
2019-06-26T16:53:01.883Z,33.80
2019-06-26T16:55:28.806Z,33.80
2019-06-26T16:57:55.690Z,33.70
2019-06-26T17:00:22.897Z,33.70
2019-06-26T17:02:49.974Z,33.70
2019-06-26T17:05:17.094Z,33.70
2019-06-26T17:07:44.060Z,33.60
2019-06-26T17:10:11.236Z,33.60
2019-06-26T17:12:38.139Z,33.60
2019-06-26T17:15:05.181Z,33.60
2019-06-26T17:17:32.426Z,33.60
2019-06-26T17:20:02.781Z,33.50
2019-06-26T17:22:29.781Z,33.50
2019-06-26T17:24:56.738Z,33.60
2019-06-26T17:27:23.841Z,33.60
2019-06-26T17:29:51.140Z,33.50
2019-06-26T17:32:18.142Z,33.50
2019-06-26T17:34:45.274Z,33.40
2019-06-26T17:37:12.724Z,33.40
2019-06-26T17:39:42.341Z,33.40
2019-06-26T17:42:09.918Z,33.30
2019-06-26T17:44:36.894Z,33.30
2019-06-26T17:47:25.172Z,33.30
2019-06-26T17:49:56.802Z,33.30
2019-06-26T17:52:24.613Z,33.20
2019-06-26T17:55:06.587Z,33.10
2019-06-26T17:57:33.930Z,33.10
2019-06-26T18:00:01.001Z,33.10
2019-06-26T18:02:27.964Z,33.00
2019-06-26T18:04:55.072Z,33.00
2019-06-26T18:07:22.125Z,33.00
2019-06-26T18:09:49.188Z,32.90
2019-06-26T18:12:16.267Z,32.90
2019-06-26T18:14:43.510Z,32.90
2019-06-26T18:17:21.688Z,32.80
2019-06-26T18:19:39.400Z,32.70
2019-06-26T18:22:06.345Z,32.70
2019-06-26T18:24:33.525Z,32.70
2019-06-26T18:27:00.516Z,32.70
2019-06-26T18:29:27.614Z,32.60
2019-06-26T18:31:55.218Z,32.60
2019-06-26T18:34:22.427Z,32.50
2019-06-26T18:36:49.569Z,32.50
2019-06-26T18:39:16.598Z,32.40
2019-06-26T18:41:43.663Z,32.40
2019-06-26T18:44:10.600Z,32.40
2019-06-26T18:46:37.731Z,32.40
2019-06-26T18:49:06.267Z,32.30
2019-06-26T18:51:41.078Z,32.20
2019-06-26T18:54:08.534Z,32.20
2019-06-26T18:56:35.673Z,32.20
2019-06-26T18:59:28.199Z,32.10
2019-06-26T19:01:57.979Z,32.10
2019-06-26T19:04:28.497Z,32.00
2019-06-26T19:06:55.472Z,32.00
2019-06-26T19:09:22.514Z,31.90
2019-06-26T19:11:49.757Z,31.90
2019-06-26T19:14:16.783Z,31.90
2019-06-26T19:16:43.795Z,31.80
2019-06-26T19:19:12.337Z,31.70
2019-06-26T19:21:39.535Z,31.70
2019-06-26T19:24:10.364Z,31.70
2019-06-26T19:26:35.466Z,31.70
2019-06-26T19:29:02.516Z,31.60
2019-06-26T19:31:29.503Z,31.60
2019-06-26T19:33:56.509Z,31.60
2019-06-26T19:36:26.160Z,31.50
2019-06-26T19:38:52.669Z,31.50
2019-06-26T19:41:19.921Z,31.40
2019-06-26T19:43:46.847Z,31.40
2019-06-26T19:46:15.194Z,31.40
2019-06-26T19:48:42.336Z,31.30
2019-06-26T19:51:09.485Z,31.30
2019-06-26T19:53:36.563Z,31.20
2019-06-26T19:56:03.657Z,31.20
2019-06-26T19:58:30.848Z,31.20
2019-06-26T20:00:58.577Z,31.10
2019-06-26T20:03:25.578Z,31.10
2019-06-26T20:05:53.562Z,31.10
2019-06-26T20:08:20.673Z,31.00
2019-06-26T20:10:47.659Z,31.00
2019-06-26T20:13:14.754Z,31.00
2019-06-26T20:15:41.717Z,31.00
2019-06-26T20:18:08.971Z,31.00
2019-06-26T20:20:45.467Z,30.90
2019-06-26T20:23:12.984Z,30.80
2019-06-26T20:25:40.059Z,30.80
2019-06-26T20:28:07.619Z,30.70
2019-06-26T20:30:35.410Z,30.80
2019-06-26T20:33:03.612Z,30.70
2019-06-26T20:35:33.066Z,30.70
2019-06-26T20:38:00.090Z,30.60
2019-06-26T20:40:27.330Z,30.60
2019-06-26T20:42:54.462Z,30.50
2019-06-26T20:45:21.522Z,30.50
2019-06-26T20:47:48.711Z,30.40
2019-06-26T20:50:15.733Z,30.40
2019-06-26T20:52:42.833Z,30.30
2019-06-26T20:55:10.073Z,30.30
2019-06-26T20:57:37.239Z,30.40
2019-06-26T21:00:06.165Z,30.30
2019-06-26T21:02:33.357Z,30.30
2019-06-26T21:05:00.402Z,30.20
2019-06-26T21:07:27.532Z,30.20
2019-06-26T21:09:54.526Z,30.10
2019-06-26T21:12:21.554Z,30.10
2019-06-26T21:14:48.611Z,30.00
2019-06-26T21:17:15.821Z,30.00
2019-06-26T21:19:43.004Z,30.00
2019-06-26T21:22:10.209Z,29.90
2019-06-26T21:24:38.961Z,29.90
2019-06-26T21:27:07.041Z,29.90
2019-06-26T21:29:34.059Z,29.80
2019-06-26T21:32:01.182Z,29.70
2019-06-26T21:34:28.343Z,29.70
2019-06-26T21:36:55.401Z,29.70
2019-06-26T21:39:22.489Z,29.70
2019-06-26T21:41:49.532Z,29.80
2019-06-26T21:44:16.598Z,29.80
2019-06-26T21:46:43.655Z,29.70
2019-06-26T21:49:10.741Z,29.70
2019-06-26T21:51:38.109Z,29.70
2019-06-26T21:54:05.236Z,29.60
2019-06-26T21:56:32.253Z,29.60
2019-06-26T21:58:59.624Z,29.60
2019-06-26T22:01:27.222Z,29.60
2019-06-26T22:03:54.284Z,29.60
2019-06-26T22:06:21.525Z,29.60
2019-06-26T22:08:48.635Z,29.60
2019-06-26T22:11:15.637Z,29.60
2019-06-26T22:13:42.700Z,29.60
2019-06-26T22:16:09.730Z,29.50
2019-06-26T22:18:36.622Z,29.50
2019-06-26T22:21:04.181Z,29.50
2019-06-26T22:23:31.211Z,29.50
2019-06-26T22:25:58.253Z,29.40
2019-06-26T22:28:25.308Z,29.30
2019-06-26T22:30:52.302Z,29.20
2019-06-26T22:33:19.211Z,29.20
2019-06-26T22:35:46.293Z,29.20
2019-06-26T22:38:13.306Z,29.20
2019-06-26T22:40:40.724Z,29.20
2019-06-26T22:43:07.885Z,29.20
2019-06-26T22:45:34.901Z,29.20
2019-06-26T22:48:02.054Z,29.20
2019-06-26T22:50:29.115Z,29.20
2019-06-26T22:52:56.230Z,29.20
2019-06-26T22:55:23.323Z,29.10
2019-06-26T22:57:50.381Z,29.10
2019-06-26T23:00:17.807Z,29.10
2019-06-26T23:02:44.982Z,29.10
2019-06-26T23:05:12.066Z,29.10
2019-06-26T23:07:39.068Z,29.00
2019-06-26T23:10:06.602Z,29.00
2019-06-26T23:12:33.574Z,29.00
2019-06-26T23:15:00.616Z,29.00
2019-06-26T23:17:27.667Z,29.00
2019-06-26T23:19:54.718Z,28.90
2019-06-26T23:22:21.794Z,28.90
2019-06-26T23:24:49.067Z,28.90
2019-06-26T23:27:16.192Z,28.90
2019-06-26T23:29:43.205Z,28.90
2019-06-26T23:32:10.257Z,28.90
2019-06-26T23:34:37.202Z,28.80
2019-06-26T23:37:04.289Z,28.80
2019-06-26T23:39:32.407Z,28.70
2019-06-26T23:41:59.473Z,28.70
2019-06-26T23:44:26.522Z,28.70
2019-06-26T23:46:53.566Z,28.70
2019-06-26T23:49:20.651Z,28.60
2019-06-26T23:51:47.765Z,28.60
2019-06-26T23:54:14.776Z,28.50
2019-06-26T23:56:41.793Z,28.50
2019-06-26T23:59:08.816Z,28.50
